createdAt,value
2022-12-24T00:00:09.006Z,7.86
2022-12-24T00:02:35.535Z,7.88
2022-12-24T00:05:02.225Z,7.83
2022-12-24T00:07:29.129Z,7.85
2022-12-24T00:09:55.612Z,7.85
2022-12-24T00:12:22.030Z,7.83
2022-12-24T00:14:48.429Z,7.70
2022-12-24T00:17:15.094Z,7.70
2022-12-24T00:19:43.151Z,7.71
2022-12-24T00:22:09.664Z,7.72
2022-12-24T00:24:36.224Z,7.77
2022-12-24T00:27:03.534Z,7.79
2022-12-24T00:29:29.993Z,7.67
2022-12-24T00:31:56.419Z,7.60
2022-12-24T00:34:24.510Z,7.67
2022-12-24T00:36:51.346Z,7.74
2022-12-24T00:39:17.832Z,7.66
2022-12-24T00:41:44.592Z,7.63
2022-12-24T00:44:11.151Z,7.61
2022-12-24T00:46:40.181Z,7.61
2022-12-24T00:49:08.316Z,7.62
2022-12-24T00:51:35.914Z,7.69
2022-12-24T00:54:03.359Z,7.73
2022-12-24T00:56:29.954Z,7.77
2022-12-24T00:58:56.620Z,7.79
2022-12-24T01:01:23.596Z,7.77
2022-12-24T01:03:51.198Z,7.78
2022-12-24T01:06:21.566Z,7.78
2022-12-24T01:08:51.631Z,7.75
2022-12-24T01:11:18.611Z,7.70
2022-12-24T01:13:45.071Z,7.72
2022-12-24T01:16:17.921Z,7.77
2022-12-24T01:18:44.542Z,7.78
2022-12-24T01:21:11.030Z,7.80
2022-12-24T01:23:37.458Z,7.83
2022-12-24T01:26:04.757Z,7.84
2022-12-24T01:28:32.607Z,7.83
2022-12-24T01:30:59.786Z,7.80
2022-12-24T01:33:29.328Z,7.77
2022-12-24T01:35:55.739Z,7.77
2022-12-24T01:38:22.178Z,7.73
2022-12-24T01:41:06.963Z,7.73
2022-12-24T01:43:33.854Z,7.78
2022-12-24T01:46:07.490Z,7.77
2022-12-24T01:48:52.088Z,7.72
2022-12-24T01:51:37.677Z,7.75
2022-12-24T01:54:17.152Z,7.75
2022-12-24T01:56:49.186Z,7.73
2022-12-24T01:59:18.857Z,7.71
2022-12-24T02:01:48.254Z,7.73
2022-12-24T02:04:24.511Z,7.77
2022-12-24T02:06:50.935Z,7.78
2022-12-24T02:09:18.015Z,7.78
2022-12-24T02:11:44.950Z,7.79
2022-12-24T02:14:13.256Z,7.80
2022-12-24T02:17:01.581Z,7.83
2022-12-24T02:19:46.773Z,7.88
2022-12-24T02:22:38.161Z,7.87
2022-12-24T02:25:13.300Z,7.85
2022-12-24T02:28:05.609Z,7.88
2022-12-24T02:30:38.692Z,7.88
2022-12-24T02:33:17.944Z,7.87
2022-12-24T02:35:59.260Z,7.92
2022-12-24T02:38:47.070Z,7.92
2022-12-24T02:41:18.913Z,7.89
2022-12-24T02:43:48.637Z,7.90
2022-12-24T02:46:25.404Z,7.88
2022-12-24T02:48:52.404Z,7.89
2022-12-24T02:51:24.272Z,7.87
2022-12-24T02:53:50.978Z,7.90
2022-12-24T02:56:35.226Z,7.88
2022-12-24T02:59:29.597Z,7.86
2022-12-24T03:02:08.843Z,7.84
2022-12-24T03:05:02.767Z,7.84
2022-12-24T03:07:51.586Z,7.82
2022-12-24T03:10:46.537Z,7.77
2022-12-24T03:13:19.442Z,7.77
2022-12-24T03:15:48.230Z,7.78
2022-12-24T03:18:19.522Z,7.82
2022-12-24T03:20:52.840Z,7.83
2022-12-24T03:23:19.304Z,7.82
2022-12-24T03:25:46.372Z,7.82
2022-12-24T03:28:15.462Z,7.83
2022-12-24T03:30:44.566Z,7.82
2022-12-24T03:33:12.721Z,7.83
2022-12-24T03:35:39.468Z,7.86
2022-12-24T03:38:05.999Z,7.87
2022-12-24T03:40:32.445Z,7.84
2022-12-24T03:42:58.931Z,7.85
2022-12-24T03:45:25.452Z,7.84
2022-12-24T03:47:51.911Z,7.86
2022-12-24T03:50:18.358Z,7.85
2022-12-24T03:52:44.877Z,7.84
2022-12-24T03:55:11.318Z,7.83
2022-12-24T03:57:37.853Z,7.83
2022-12-24T04:00:08.029Z,7.78
2022-12-24T04:02:34.725Z,7.81
2022-12-24T04:05:01.235Z,7.81
2022-12-24T04:07:27.646Z,7.81
2022-12-24T04:09:54.074Z,7.82
2022-12-24T04:12:20.536Z,7.79
2022-12-24T04:14:47.097Z,7.80
2022-12-24T04:17:13.515Z,7.83
2022-12-24T04:19:40.010Z,7.85
2022-12-24T04:22:06.424Z,7.84
2022-12-24T04:24:32.818Z,7.86
2022-12-24T04:26:59.281Z,7.83
2022-12-24T04:29:25.712Z,7.85
2022-12-24T04:31:52.175Z,7.84
2022-12-24T04:34:18.759Z,7.82
2022-12-24T04:36:45.221Z,7.86
2022-12-24T04:39:11.785Z,7.85
2022-12-24T04:41:38.292Z,7.80
2022-12-24T04:44:04.915Z,7.80
2022-12-24T04:46:31.532Z,7.80
2022-12-24T04:48:58.794Z,7.82
2022-12-24T04:51:26.858Z,7.83
2022-12-24T04:53:53.986Z,7.84
2022-12-24T04:56:26.703Z,7.85
2022-12-24T04:58:53.820Z,7.77
2022-12-24T05:01:23.430Z,7.73
2022-12-24T05:03:50.722Z,7.74
2022-12-24T05:06:19.997Z,7.77
2022-12-24T05:08:46.892Z,7.77
2022-12-24T05:11:15.506Z,7.75
2022-12-24T05:13:47.507Z,7.74
2022-12-24T05:16:15.876Z,7.79
2022-12-24T05:18:42.479Z,7.84
2022-12-24T05:21:10.881Z,7.82
2022-12-24T05:23:56.875Z,7.75
2022-12-24T05:26:34.138Z,7.74
2022-12-24T05:29:02.457Z,7.74
2022-12-24T05:31:31.041Z,7.78
2022-12-24T05:33:57.647Z,7.82
2022-12-24T05:36:24.370Z,7.86
2022-12-24T05:38:51.459Z,7.84
2022-12-24T05:41:18.245Z,7.81
2022-12-24T05:43:44.797Z,7.81
2022-12-24T05:46:13.899Z,7.84
2022-12-24T05:48:40.494Z,7.82
2022-12-24T05:51:08.572Z,7.79
2022-12-24T05:53:36.055Z,7.74
2022-12-24T05:56:14.290Z,7.73
2022-12-24T05:58:41.668Z,7.79
2022-12-24T06:01:09.660Z,7.78
2022-12-24T06:03:36.813Z,7.75
2022-12-24T06:06:06.769Z,7.72
2022-12-24T06:08:34.340Z,7.71
2022-12-24T06:11:03.700Z,7.71
2022-12-24T06:13:31.246Z,7.72
2022-12-24T06:15:59.016Z,7.78
2022-12-24T06:18:25.910Z,7.79
2022-12-24T06:20:53.701Z,7.77
2022-12-24T06:23:20.697Z,7.81
2022-12-24T06:25:47.758Z,7.84
2022-12-24T06:28:14.455Z,7.84
2022-12-24T06:30:41.883Z,7.80
2022-12-24T06:33:08.433Z,7.80
2022-12-24T06:35:34.861Z,7.77
2022-12-24T06:38:01.289Z,7.71
2022-12-24T06:40:28.094Z,7.73
2022-12-24T06:42:54.728Z,7.67
2022-12-24T06:45:21.516Z,7.65
2022-12-24T06:47:47.910Z,7.69
2022-12-24T06:50:14.394Z,7.70
2022-12-24T06:52:40.845Z,7.76
2022-12-24T06:55:07.864Z,7.76
2022-12-24T06:57:34.325Z,7.81
2022-12-24T07:00:00.840Z,7.83
2022-12-24T07:02:28.096Z,7.82
2022-12-24T07:04:54.621Z,7.80
2022-12-24T07:07:21.082Z,7.78
2022-12-24T07:09:47.548Z,7.81
2022-12-24T07:12:13.928Z,7.78
2022-12-24T07:14:40.355Z,7.75
2022-12-24T07:17:06.857Z,7.78
2022-12-24T07:19:34.253Z,7.81
2022-12-24T07:22:00.767Z,7.84
2022-12-24T07:24:27.176Z,7.84
2022-12-24T07:26:53.654Z,7.83
2022-12-24T07:29:20.481Z,7.84
2022-12-24T07:31:47.028Z,7.90
2022-12-24T07:34:13.582Z,7.89
2022-12-24T07:36:40.002Z,7.85
2022-12-24T07:39:06.382Z,7.82
2022-12-24T07:41:37.935Z,7.85
2022-12-24T07:44:12.296Z,7.90
2022-12-24T07:46:39.236Z,7.94
2022-12-24T07:49:05.816Z,7.95
2022-12-24T07:51:32.300Z,7.95
2022-12-24T07:53:58.815Z,7.95
2022-12-24T07:56:25.455Z,7.95
2022-12-24T07:58:52.554Z,7.96
2022-12-24T08:01:19.184Z,7.94
2022-12-24T08:03:45.757Z,7.94
2022-12-24T08:06:12.444Z,7.91
2022-12-24T08:08:39.007Z,7.95
2022-12-24T08:11:07.008Z,7.97
2022-12-24T08:13:33.912Z,8.01
2022-12-24T08:16:00.632Z,8.04
2022-12-24T08:18:27.108Z,8.07
2022-12-24T08:20:53.535Z,8.10
2022-12-24T08:23:20.098Z,8.08
2022-12-24T08:25:47.661Z,8.03
2022-12-24T08:28:16.491Z,8.06
2022-12-24T08:30:43.641Z,8.07
2022-12-24T08:33:10.409Z,8.07
2022-12-24T08:35:36.966Z,8.06
2022-12-24T08:38:03.451Z,8.10
2022-12-24T08:40:29.870Z,8.10
2022-12-24T08:42:56.495Z,8.08
2022-12-24T08:45:22.991Z,8.07
2022-12-24T08:47:49.413Z,8.08
2022-12-24T08:50:15.935Z,8.09
2022-12-24T08:52:42.353Z,8.13
2022-12-24T08:55:09.138Z,8.10
2022-12-24T08:57:37.444Z,8.11
2022-12-24T09:00:06.341Z,8.17
2022-12-24T09:02:33.101Z,8.21
2022-12-24T09:04:59.751Z,8.25
2022-12-24T09:07:26.212Z,8.23
2022-12-24T09:09:52.607Z,8.23
2022-12-24T09:12:19.077Z,8.21
2022-12-24T09:14:45.600Z,8.27
2022-12-24T09:17:12.065Z,8.29
2022-12-24T09:19:38.655Z,8.26
2022-12-24T09:22:05.407Z,8.25
2022-12-24T09:24:32.305Z,8.23
2022-12-24T09:26:59.302Z,8.24
2022-12-24T09:29:25.757Z,8.23
2022-12-24T09:31:52.683Z,8.25
2022-12-24T09:34:19.189Z,8.24
2022-12-24T09:36:46.377Z,8.22
2022-12-24T09:39:13.927Z,8.27
2022-12-24T09:42:07.312Z,8.29
2022-12-24T09:44:46.096Z,8.27
2022-12-24T09:47:38.405Z,8.24
2022-12-24T09:50:21.906Z,8.26
2022-12-24T09:52:50.215Z,8.28
2022-12-24T09:55:23.509Z,8.30
2022-12-24T09:57:53.376Z,8.32
2022-12-24T10:00:24.402Z,8.34
2022-12-24T10:02:51.265Z,8.35
2022-12-24T10:05:23.501Z,8.34
2022-12-24T10:08:05.437Z,8.34
2022-12-24T10:10:51.286Z,8.38
2022-12-24T10:13:36.817Z,8.34
2022-12-24T10:16:24.118Z,8.34
2022-12-24T10:19:02.691Z,8.35
2022-12-24T10:21:53.186Z,8.39
2022-12-24T10:24:28.449Z,8.39
2022-12-24T10:27:14.787Z,8.47
2022-12-24T10:29:46.197Z,8.45
2022-12-24T10:32:21.123Z,8.40
2022-12-24T10:35:16.471Z,8.37
2022-12-24T10:37:44.947Z,8.43
2022-12-24T10:40:22.427Z,8.45
2022-12-24T10:42:51.539Z,8.44
2022-12-24T10:45:21.437Z,8.44
2022-12-24T10:47:52.751Z,8.45
2022-12-24T10:50:33.661Z,8.45
2022-12-24T10:53:07.614Z,8.50
2022-12-24T10:55:34.041Z,8.55
2022-12-24T10:58:07.319Z,8.59
2022-12-24T11:00:36.561Z,8.63
2022-12-24T11:03:13.508Z,8.59
2022-12-24T11:05:40.541Z,8.62
2022-12-24T11:08:12.934Z,8.60
2022-12-24T11:10:57.938Z,8.69
2022-12-24T11:13:37.583Z,8.70
2022-12-24T11:16:23.706Z,8.77
2022-12-24T11:18:52.915Z,8.70
2022-12-24T11:21:31.236Z,8.72
2022-12-24T11:24:04.144Z,8.71
2022-12-24T11:26:31.322Z,8.65
2022-12-24T11:29:03.789Z,8.68
2022-12-24T11:31:32.865Z,8.70
2022-12-24T11:33:59.387Z,8.72
2022-12-24T11:36:27.603Z,8.81
2022-12-24T11:38:56.955Z,8.84
2022-12-24T11:41:25.835Z,8.79
2022-12-24T11:44:01.328Z,8.78
2022-12-24T11:46:38.514Z,8.85
2022-12-24T11:49:15.995Z,8.90
2022-12-24T11:52:10.408Z,8.94
2022-12-24T11:55:16.349Z,8.93
2022-12-24T11:58:00.247Z,8.75
2022-12-24T12:00:27.451Z,8.77
2022-12-24T12:02:56.986Z,8.75
2022-12-24T12:05:29.764Z,8.76
2022-12-24T12:08:15.208Z,8.79
2022-12-24T12:10:44.353Z,8.81
2022-12-24T12:13:17.735Z,8.79
2022-12-24T12:15:52.936Z,8.74
2022-12-24T12:18:24.441Z,8.72
2022-12-24T12:20:53.972Z,8.71
2022-12-24T12:23:25.747Z,8.77
2022-12-24T12:25:57.749Z,8.84
2022-12-24T12:28:45.493Z,8.87
2022-12-24T12:31:19.085Z,8.80
2022-12-24T12:33:54.840Z,8.83
2022-12-24T12:36:28.914Z,8.87
2022-12-24T12:38:55.356Z,8.85
2022-12-24T12:41:49.872Z,8.89
2022-12-24T12:44:31.655Z,8.94
2022-12-24T12:47:41.208Z,8.98
2022-12-24T12:50:29.365Z,8.93
2022-12-24T12:53:24.934Z,8.92
2022-12-24T12:56:05.798Z,8.93
2022-12-24T12:58:34.470Z,8.92
2022-12-24T13:01:13.407Z,8.94
2022-12-24T13:04:31.035Z,8.94
2022-12-24T13:07:15.974Z,8.87
2022-12-24T13:10:07.553Z,8.89
2022-12-24T13:12:52.582Z,8.93
2022-12-24T13:15:29.615Z,8.93
2022-12-24T13:18:43.068Z,8.91
2022-12-24T13:21:18.648Z,8.93
2022-12-24T13:23:45.231Z,8.95
2022-12-24T13:26:14.503Z,8.94
2022-12-24T13:28:42.091Z,8.92
2022-12-24T13:31:19.676Z,8.94
2022-12-24T13:33:49.761Z,8.93
2022-12-24T13:36:17.705Z,8.94
2022-12-24T13:38:44.110Z,8.94
2022-12-24T13:41:40.123Z,8.94
2022-12-24T13:44:06.795Z,8.96
2022-12-24T13:46:52.140Z,8.95
2022-12-24T13:49:28.136Z,8.94
2022-12-24T13:52:07.735Z,8.94
2022-12-24T13:54:35.789Z,8.94
2022-12-24T13:57:02.287Z,8.92
2022-12-24T13:59:39.031Z,8.92
2022-12-24T14:02:17.890Z,8.92
2022-12-24T14:04:44.587Z,8.88
2022-12-24T14:07:11.620Z,8.87
2022-12-24T14:09:38.146Z,8.84
2022-12-24T14:12:04.510Z,8.88
2022-12-24T14:14:49.106Z,8.90
2022-12-24T14:17:18.608Z,8.86
2022-12-24T14:19:54.382Z,8.85
2022-12-24T14:22:53.878Z,8.90
2022-12-24T14:25:23.335Z,8.91
2022-12-24T14:27:59.220Z,8.89
2022-12-24T14:30:27.977Z,8.89
2022-12-24T14:32:55.157Z,8.86
2022-12-24T14:35:36.832Z,8.88
2022-12-24T14:38:06.522Z,8.86
2022-12-24T14:40:49.147Z,8.80
2022-12-24T14:43:35.311Z,8.71
2022-12-24T14:46:21.459Z,8.75
2022-12-24T14:48:53.787Z,8.77
2022-12-24T14:51:49.069Z,8.78
2022-12-24T14:54:27.831Z,8.78
2022-12-24T14:57:09.977Z,8.76
2022-12-24T14:59:54.943Z,8.79
2022-12-24T15:02:49.331Z,8.80
2022-12-24T15:05:28.868Z,8.80
2022-12-24T15:08:01.316Z,8.75
2022-12-24T15:10:43.060Z,8.72
2022-12-24T15:13:36.703Z,8.60
2022-12-24T15:16:07.637Z,8.55
2022-12-24T15:18:37.707Z,8.55
2022-12-24T15:21:07.058Z,8.56
2022-12-24T15:23:36.799Z,8.56
2022-12-24T15:26:29.431Z,8.58
2022-12-24T15:29:03.142Z,8.61
2022-12-24T15:31:30.861Z,8.56
2022-12-24T15:33:59.450Z,8.55
2022-12-24T15:36:37.194Z,8.52
2022-12-24T15:39:07.452Z,8.58
2022-12-24T15:42:01.305Z,8.50
2022-12-24T15:44:32.643Z,8.51
2022-12-24T15:47:01.104Z,8.53
2022-12-24T15:49:30.354Z,8.48
2022-12-24T15:52:05.753Z,8.48
2022-12-24T15:54:32.271Z,8.45
2022-12-24T15:56:58.720Z,8.43
2022-12-24T15:59:38.165Z,8.40
2022-12-24T16:02:27.268Z,8.43
2022-12-24T16:04:54.041Z,8.44
2022-12-24T16:07:47.526Z,8.41
2022-12-24T16:10:26.305Z,8.43
2022-12-24T16:12:52.787Z,8.45
2022-12-24T16:15:19.371Z,8.42
2022-12-24T16:17:49.319Z,8.43
2022-12-24T16:20:22.045Z,8.44
2022-12-24T16:22:49.851Z,8.41
2022-12-24T16:25:20.840Z,8.39
2022-12-24T16:27:47.239Z,8.42
2022-12-24T16:30:13.836Z,8.40
2022-12-24T16:32:41.379Z,8.38
2022-12-24T16:35:20.333Z,8.36
2022-12-24T16:37:46.875Z,8.39
2022-12-24T16:40:19.364Z,8.42
2022-12-24T16:43:05.460Z,8.41
2022-12-24T16:45:33.339Z,8.53
2022-12-24T16:48:00.108Z,8.46
2022-12-24T16:50:26.673Z,8.44
2022-12-24T16:52:53.180Z,8.37
2022-12-24T16:55:19.619Z,8.40
2022-12-24T16:57:46.442Z,8.38
2022-12-24T17:00:18.057Z,8.41
2022-12-24T17:02:45.055Z,8.39
2022-12-24T17:05:12.061Z,8.44
2022-12-24T17:07:43.444Z,8.52
2022-12-24T17:10:14.277Z,8.46
2022-12-24T17:12:41.410Z,8.44
2022-12-24T17:15:08.646Z,8.43
2022-12-24T17:17:35.710Z,8.36
2022-12-24T17:20:04.483Z,8.32
2022-12-24T17:22:30.936Z,8.30
2022-12-24T17:24:57.402Z,8.35
2022-12-24T17:27:23.951Z,8.35
2022-12-24T17:29:50.519Z,8.32
2022-12-24T17:32:17.280Z,8.30
2022-12-24T17:34:43.743Z,8.31
2022-12-24T17:37:10.291Z,8.31
2022-12-24T17:39:36.871Z,8.32
2022-12-24T17:42:03.580Z,8.33
2022-12-24T17:44:30.248Z,8.38
2022-12-24T17:46:56.843Z,8.40
2022-12-24T17:49:23.392Z,8.38
2022-12-24T17:51:49.810Z,8.29
2022-12-24T17:54:16.230Z,8.33
2022-12-24T17:56:42.739Z,8.32
2022-12-24T17:59:09.152Z,8.27
2022-12-24T18:01:35.850Z,8.24
2022-12-24T18:04:03.479Z,8.26
2022-12-24T18:06:30.163Z,8.31
2022-12-24T18:08:57.142Z,8.29
2022-12-24T18:11:29.375Z,8.25
2022-12-24T18:13:57.098Z,8.27
2022-12-24T18:16:29.511Z,8.27
2022-12-24T18:18:56.788Z,8.29
2022-12-24T18:21:25.860Z,8.26
2022-12-24T18:23:53.120Z,8.22
2022-12-24T18:26:20.330Z,8.23
2022-12-24T18:28:47.360Z,8.27
2022-12-24T18:31:18.905Z,8.27
2022-12-24T18:33:46.313Z,8.25
2022-12-24T18:36:13.108Z,8.24
2022-12-24T18:38:39.621Z,8.22
2022-12-24T18:41:08.461Z,8.25
2022-12-24T18:43:35.342Z,8.28
2022-12-24T18:46:13.871Z,8.32
2022-12-24T18:48:40.417Z,8.31
2022-12-24T18:51:09.211Z,8.31
2022-12-24T18:53:36.608Z,8.31
2022-12-24T18:56:07.580Z,8.30
2022-12-24T18:58:34.196Z,8.32
2022-12-24T19:01:00.744Z,8.28
2022-12-24T19:03:27.245Z,8.29
2022-12-24T19:05:53.741Z,8.31
2022-12-24T19:08:56.062Z,8.32
2022-12-24T19:11:06.721Z,8.32
2022-12-24T19:13:33.553Z,8.33
2022-12-24T19:16:00.273Z,8.37
2022-12-24T19:18:26.823Z,8.32
2022-12-24T19:20:53.250Z,8.32
2022-12-24T19:23:19.661Z,8.27
2022-12-24T19:25:46.120Z,8.25
2022-12-24T19:28:12.686Z,8.28
2022-12-24T19:30:42.314Z,8.29
2022-12-24T19:33:10.099Z,8.34
2022-12-24T19:35:36.855Z,8.37
2022-12-24T19:38:03.438Z,8.34
2022-12-24T19:40:30.695Z,8.31
2022-12-24T19:42:58.024Z,8.32
2022-12-24T19:45:25.674Z,8.37
2022-12-24T19:47:52.534Z,8.39
2022-12-24T19:50:20.180Z,8.42
2022-12-24T19:52:47.469Z,8.43
2022-12-24T19:55:15.083Z,8.41
2022-12-24T19:57:41.707Z,8.39
2022-12-24T20:00:10.289Z,8.37
2022-12-24T20:02:36.850Z,8.42
2022-12-24T20:05:03.621Z,8.41
2022-12-24T20:07:30.117Z,8.41
2022-12-24T20:09:56.509Z,8.44
2022-12-24T20:12:22.954Z,8.43
2022-12-24T20:14:49.371Z,8.43
2022-12-24T20:17:15.773Z,8.44
2022-12-24T20:19:42.176Z,8.46
2022-12-24T20:22:08.589Z,8.46
2022-12-24T20:24:35.040Z,8.41
2022-12-24T20:27:01.447Z,8.36
2022-12-24T20:29:28.132Z,8.40
2022-12-24T20:31:54.609Z,8.44
2022-12-24T20:34:21.037Z,8.45
2022-12-24T20:36:47.436Z,8.42
2022-12-24T20:39:13.869Z,8.37
2022-12-24T20:41:40.361Z,8.36
2022-12-24T20:44:06.819Z,8.39
2022-12-24T20:46:33.679Z,8.42
2022-12-24T20:49:00.298Z,8.39
2022-12-24T20:51:27.885Z,8.34
2022-12-24T20:53:57.205Z,8.37
2022-12-24T20:56:24.321Z,8.40
2022-12-24T20:58:50.906Z,8.41
2022-12-24T21:01:20.735Z,8.40
2022-12-24T21:03:47.564Z,8.40
2022-12-24T21:06:15.558Z,8.37
2022-12-24T21:08:42.672Z,8.40
2022-12-24T21:11:27.390Z,8.42
2022-12-24T21:13:53.853Z,8.42
2022-12-24T21:16:20.433Z,8.42
2022-12-24T21:18:46.946Z,8.33
2022-12-24T21:21:13.436Z,8.30
2022-12-24T21:23:39.972Z,8.33
2022-12-24T21:26:06.468Z,8.39
2022-12-24T21:28:33.246Z,8.35
2022-12-24T21:30:59.746Z,8.33
2022-12-24T21:33:26.539Z,8.33
2022-12-24T21:35:59.901Z,8.33
2022-12-24T21:38:26.534Z,8.30
2022-12-24T21:41:21.662Z,8.31
2022-12-24T21:43:48.085Z,8.29
2022-12-24T21:46:22.130Z,8.28
2022-12-24T21:49:12.457Z,8.29
2022-12-24T21:51:39.508Z,8.29
2022-12-24T21:54:25.604Z,8.28
2022-12-24T21:57:12.565Z,8.26
2022-12-24T21:59:39.282Z,8.26
2022-12-24T22:02:07.080Z,8.24
2022-12-24T22:04:34.428Z,8.28
2022-12-24T22:07:19.469Z,8.32
2022-12-24T22:10:04.223Z,8.29
2022-12-24T22:12:33.287Z,8.29
2022-12-24T22:15:00.140Z,8.31
2022-12-24T22:17:28.606Z,8.32
2022-12-24T22:19:55.381Z,8.29
2022-12-24T22:22:22.514Z,8.27
2022-12-24T22:24:48.962Z,8.24
2022-12-24T22:27:15.440Z,8.23
2022-12-24T22:29:41.964Z,8.24
2022-12-24T22:32:08.384Z,8.23
2022-12-24T22:34:36.009Z,8.21
2022-12-24T22:37:02.461Z,8.22
2022-12-24T22:39:28.954Z,8.26
2022-12-24T22:41:57.855Z,8.23
2022-12-24T22:44:24.892Z,8.23
2022-12-24T22:46:51.450Z,8.24
2022-12-24T22:49:17.882Z,8.26
2022-12-24T22:51:44.298Z,8.24
2022-12-24T22:54:10.943Z,8.25
2022-12-24T22:56:41.265Z,8.27
2022-12-24T22:59:09.094Z,8.27
2022-12-24T23:01:40.012Z,8.34
2022-12-24T23:04:07.150Z,8.36
2022-12-24T23:06:34.459Z,8.37
2022-12-24T23:09:01.497Z,8.42
2022-12-24T23:11:27.992Z,8.44
2022-12-24T23:14:12.934Z,8.41
2022-12-24T23:16:39.419Z,8.41
2022-12-24T23:19:06.728Z,8.42
2022-12-24T23:21:33.700Z,8.39
2022-12-24T23:24:01.772Z,8.36
2022-12-24T23:26:29.236Z,8.32
2022-12-24T23:28:56.785Z,8.30
2022-12-24T23:31:24.430Z,8.33
2022-12-24T23:33:51.262Z,8.37
2022-12-24T23:36:17.782Z,8.37
2022-12-24T23:38:44.390Z,8.34
2022-12-24T23:41:11.450Z,8.30
2022-12-24T23:43:37.958Z,8.28
2022-12-24T23:46:04.659Z,8.30
2022-12-24T23:48:31.175Z,8.26
2022-12-24T23:51:09.726Z,8.23
2022-12-24T23:53:36.597Z,8.22
2022-12-24T23:56:04.312Z,8.23
2022-12-24T23:58:31.172Z,8.25
